Latest Coastal Weather Observations for Pirlangimpi (Garden Point)

IDD60701

Issued at 4:41 pm CST Sunday 1 February 2015 (issued every 10 minutes, with the page automatically refreshed every 10 minutes)

About coastal observations | Map of coastal stations | Coastal observations for NT | Marine services | Other Formats
Station Details ID: 014142 Name: PIRLANGIMPI AIRPORT Lat: -11.40 Lon: 130.42 Height: 18.3 m
Data from the previous 72 hours. | See also: Recent months at Pirlangimpi (Garden Point)
Date/Time
CST
Temp

°C
Wind Pressure Rain
since 9am
mm
Weather Cloud Vis
km
Sea
Height
m
Swell
Dir
 
Speed
knots
Gust
knots
hPa Trend Height
m
Period
s
Dir
01/04:30pm 25.1 NE 3 7 1007.6 - 36.2 - - - - - - -
01/04:00pm 28.2 NNE 2 8 1007.3 - 0.0 - - - - - - -
01/03:30pm 28.3 WNW 4 8 1007.0 - 0.0 - - - - - - -
01/03:00pm 28.5 NW 4 9 1007.1 - 0.0 - - - - - - -
01/02:30pm 29.5 W 5 11 1007.3 - 0.0 - - - - - - -
01/02:00pm 30.1 WNW 6 11 1007.2 - 0.0 - - - - - - -
01/01:30pm 31.3 W 4 9 1007.7 - 0.0 - - - - - - -
01/01:00pm 31.3 W 6 13 1008.1 - 0.0 - - - - - - -
01/12:30pm 31.1 W 4 9 1008.6 - 0.0 - - - - - - -
01/12:00pm 31.5 W 5 11 1009.1 - 0.0 - - - - - - -
01/11:30am 31.5 W 6 11 1008.9 - 0.0 - - - - - - -
01/11:00am 30.2 W 5 10 1009.5 - 0.0 - - - - - - -
01/10:30am 30.4 W 5 12 1009.8 - 0.0 - - - - - - -
01/10:00am 29.2 WSW 6 9 1009.8 - 0.0 - - - - - - -
01/09:30am 29.6 W 5 13 1009.7 - 0.0 - - - - - - -
01/09:00am 29.1 W 5 13 1009.5 - 1.2 - - - - - - -
01/08:30am 29.1 WNW 2 4 1009.5 - 1.2 - - - - - - -
01/08:00am 28.1 NW 3 6 1009.3 - 1.2 - - - - - - -
01/07:30am 27.2 WNW 2 6 1008.8 - 1.2 - - - - - - -
01/07:00am 26.8 W 3 5 1008.4 - 1.2 - - - - - - -
01/06:30am 27.1 W 2 6 1008.2 - 1.2 - - - - - - -
01/06:00am 27.2 W 4 8 1007.7 - 1.2 - - - - - - -
01/05:30am 27.1 W 3 7 1007.6 - 1.2 - - - - - - -
01/05:00am 27.2 W 4 8 1007.4 - 1.2 - - - - - - -
01/04:30am 26.9 W 2 4 1007.4 - 1.2 - - - - - - -
01/04:00am 26.9 WNW 2 5 1007.3 - 1.2 - - - - - - -
01/03:30am 26.9 W 2 4 1007.3 - 1.2 - - - - - - -
01/03:00am 26.9 WNW 2 4 1007.6 - 1.2 - - - - - - -
01/02:30am 26.5 W 1 3 1008.0 - 1.2 - - - - - - -
01/02:00am 26.4 W 1 2 1008.2 - 1.2 - - - - - - -
01/01:30am 26.3 CALM 0 2 1008.3 - 1.2 - - - - - - -
01/01:00am 26.8 W 1 2 1008.4 - 1.2 - - - - - - -
01/12:30am 26.8 W 1 3 1008.7 - 1.2 - - - - - - -
01/12:00am 26.7 CALM 0 2 1008.9 - 1.2 - - - - - - -
 
Date/Time
CST
Temp

°C
Wind Pressure Rain
since 9am
mm
Weather Cloud Vis
km
Sea
Height
m
Swell
Dir
 
Speed
knots
Gust
knots
hPa Trend Height
m
Period
s
Dir
31/11:30pm 26.9 WNW 1 3 1009.0 - 1.2 - - - - - - -
31/11:00pm 27.3 W 1 3 1009.1 - 1.2 - - - - - - -
31/10:30pm 27.3 WNW 1 3 1009.2 - 1.2 - - - - - - -
31/10:00pm 27.4 W 1 2 1009.1 - 1.2 - - - - - - -
31/09:30pm 27.7 WSW 1 4 1009.0 - 1.2 - - - - - - -
31/09:00pm 27.9 WSW 3 5 1008.5 - 1.2 - - - - - - -
31/08:30pm 28.0 W 2 5 1008.0 - 1.2 - - - - - - -
31/08:00pm 28.3 WSW 2 4 1007.5 - 1.2 - - - - - - -
31/07:30pm 28.5 W 3 6 1007.4 - 1.2 - - - - - - -
31/07:00pm 28.9 W 3 7 1007.1 - 1.2 - - - - - - -
31/06:30pm 29.6 WSW 4 7 1006.9 - 1.2 - - - - - - -
31/06:00pm 30.2 W 2 5 1006.5 - 1.2 - - - - - - -
31/05:30pm 29.0 WSW 2 5 1006.4 - 1.2 - - - - - - -
31/05:00pm 26.6 WSW 4 10 1006.7 - 1.2 - - - - - - -
31/04:50pm 26.6 WSW 8 20 1006.8 - 1.0 - - - - - - -
31/04:30pm 31.6 WSW 5 10 1006.4 - 0.2 - - - - - - -
31/04:00pm 31.3 WNW 5 10 1006.4 - 0.2 - - - - - - -
31/03:30pm 31.0 W 6 15 1006.6 - 0.2 - - - - - - -
31/03:00pm 31.7 WNW 6 9 1006.8 - 0.2 - - - - - - -
31/02:30pm 30.8 WNW 4 9 1007.0 - 0.2 - - - - - - -
31/02:00pm 30.8 WNW 4 10 1007.2 - 0.2 - - - - - - -
31/01:30pm 30.3 WSW 4 8 1007.5 - 0.2 - - - - - - -
31/01:00pm 30.2 WSW 3 7 1008.0 - 0.2 - - - - - - -
31/12:30pm 30.6 W 3 6 1008.5 - 0.2 - - - - - - -
31/12:00pm 29.8 W 4 7 1008.7 - 0.2 - - - - - - -
31/11:30am 29.5 W 4 8 1009.0 - 0.2 - - - - - - -
31/11:00am 29.7 W 4 7 1009.2 - 0.2 - - - - - - -
31/10:30am 29.1 WNW 3 6 1009.3 - 0.0 - - - - - - -
31/10:00am 28.9 WNW 4 7 1009.3 - 0.0 - - - - - - -
31/09:30am 28.1 NW 5 14 1009.8 - 0.0 - - - - - - -
31/09:00am 29.1 NW 2 3 1009.3 - 3.8 - - - - - - -
31/08:30am 28.0 WNW 1 2 1009.3 - 3.8 - - - - - - -
31/08:00am 26.8 NNW 1 3 1009.1 - 3.8 - - - - - - -
31/07:30am 25.9 NW 2 4 1008.9 - 3.8 - - - - - - -
31/07:00am 26.0 NNW 1 4 1008.6 - 3.6 - - - - - - -
31/06:30am 25.9 NW 2 10 1008.2 - 2.6 - - - - - - -
31/06:00am 25.6 NW 1 2 1008.2 - 1.2 - - - - - - -
31/05:30am 25.6 CALM 0 1 1007.9 - 1.2 - - - - - - -
31/05:00am 25.7 CALM 0 1 1007.9 - 1.2 - - - - - - -
31/04:30am 25.6 CALM 0 2 1007.7 - 1.2 - - - - - - -
31/04:00am 25.9 WSW 1 4 1007.6 - 1.2 - - - - - - -
31/03:30am 26.0 CALM 0 1 1007.6 - 1.2 - - - - - - -
31/03:00am 26.1 W 1 3 1007.6 - 1.2 - - - - - - -
31/02:30am 26.4 W 1 2 1007.9 - 1.2 - - - - - - -
31/02:00am 26.5 WSW 1 2 1008.1 - 1.2 - - - - - - -
31/01:30am 26.4 WSW 1 3 1008.6 - 1.2 - - - - - - -
31/01:00am 26.3 W 1 1 1008.9 - 1.2 - - - - - - -
31/12:30am 26.4 CALM 0 0 1009.2 - 1.2 - - - - - - -
31/12:00am 26.6 CALM 0 0 1009.3 - 1.2 - - - - - - -
 
Date/Time
CST
Temp

°C
Wind Pressure Rain
since 9am
mm
Weather Cloud Vis
km
Sea
Height
m
Swell
Dir
 
Speed
knots
Gust
knots
hPa Trend Height
m
Period
s
Dir
30/11:30pm 26.9 W 1 2 1009.7 - 1.2 - - - - - - -
30/11:00pm 27.0 WSW 1 2 1009.7 - 1.2 - - - - - - -
30/10:30pm 27.2 NW 1 2 1009.6 - 1.2 - - - - - - -
30/10:00pm 27.4 WNW 2 3 1009.6 - 1.2 - - - - - - -
30/09:30pm 27.4 NW 1 3 1009.2 - 1.2 - - - - - - -
30/09:00pm 27.6 W 1 2 1008.9 - 1.2 - - - - - - -
30/08:30pm 27.7 WNW 1 3 1008.3 - 1.2 - - - - - - -
30/08:00pm 27.9 WNW 2 3 1008.1 - 1.2 - - - - - - -
30/07:30pm 28.2 WNW 2 5 1007.6 - 1.2 - - - - - - -
30/07:00pm 28.6 WNW 2 6 1007.4 - 1.2 - - - - - - -
30/06:30pm 29.0 WNW 3 7 1007.1 - 1.2 - - - - - - -
30/06:00pm 29.7 WNW 4 7 1006.7 - 1.2 - - - - - - -
30/05:30pm 30.9 NW 3 7 1006.3 - 1.2 - - - - - - -
30/05:00pm 30.7 NW 4 8 1006.1 - 1.2 - - - - - - -
30/04:30pm 31.3 NW 4 7 1005.9 - 1.2 - - - - - - -
30/04:00pm 30.9 NW 5 11 1006.0 - 1.2 - - - - - - -
30/03:30pm 30.1 NW 4 9 1006.2 - 1.2 - - - - - - -
30/03:00pm 31.6 NW 5 11 1006.5 - 1.2 - - - - - - -
30/02:30pm 31.0 NW 4 7 1006.7 - 1.2 - - - - - - -
30/02:00pm 28.7 WNW 5 12 1007.3 - 1.2 - - - - - - -
30/01:30pm 29.6 NW 7 11 1007.8 - 1.2 - - - - - - -
30/01:00pm 29.9 NW 6 11 1008.2 - 1.2 - - - - - - -
30/12:30pm 30.1 NNW 4 9 1008.3 - 1.2 - - - - - - -
30/12:00pm 29.3 NW 3 5 1008.7 - 1.0 - - - - - - -
30/11:30am 28.3 NW 2 7 1009.1 - 1.0 - - - - - - -
30/11:00am 27.7 WNW 3 5 1009.3 - 1.0 - - - - - - -
30/10:30am 26.9 WNW 2 4 1009.4 - 1.0 - - - - - - -
30/10:00am 26.7 WNW 5 14 1009.6 - 0.0 - - - - - - -
30/09:30am 27.4 WNW 3 8 1009.2 - 0.0 - - - - - - -
30/09:00am 25.9 CALM 0 2 1009.0 - 19.6 Recent precip. - - - - - -
30/08:30am 25.2 NW 2 5 1008.9 - 19.6 - - - - - - -
30/08:00am 25.2 WNW 5 11 1008.4 - 16.8 - - - - - - -
30/07:30am 24.6 CALM 0 1 1007.8 - 16.6 - - - - - - -
30/07:00am 24.1 NE 2 4 1007.2 - 15.0 - - - - - - -
30/06:30am 23.7 NE 2 3 1007.0 - 15.0 - - - - - - -
30/06:00am 23.6 CALM 0 2 1006.4 - 15.0 - - - - - - -
30/05:30am 23.8 CALM 0 1 1005.9 - 15.0 - - - - - - -
30/05:00am 23.8 CALM 0 0 1005.9 - 15.0 - - - - - - -
30/04:30am 23.7 CALM 0 0 1006.3 - 15.0 - - - - - - -
30/04:00am 23.9 CALM 0 3 1006.4 - 15.0 - - - - - - -
30/03:30am 23.8 CALM 0 0 1006.4 - 15.0 - - - - - - -
30/03:00am 23.4 CALM 0 0 1006.7 - 15.0 - - - - - - -
30/02:30am 23.4 NE 1 2 1007.0 - 15.0 - - - - - - -
30/02:00am 23.5 CALM 0 0 1007.5 - 15.0 - - - - - - -
30/01:30am 23.4 CALM 0 0 1008.1 - 15.0 - - - - - - -
30/01:00am 23.4 SW 2 5 1008.3 - 15.0 - - - - - - -
30/12:30am 23.6 WSW 2 4 1009.0 - 14.8 - - - - - - -
30/12:00am 23.7 W 2 5 1009.6 - 13.6 Rain - - - - - -
 
Date/Time
CST
Temp

°C
Wind Pressure Rain
since 9am
mm
Weather Cloud Vis
km
Sea
Height
m
Swell
Dir
 
Speed
knots
Gust
knots
hPa Trend Height
m
Period
s
Dir
29/11:30pm 24.1 NW 6 13 1009.6 - 10.6 - - - - - - -
29/11:00pm 24.3 NNW 1 2 1009.5 - 8.0 - - - - - - -
29/10:30pm 23.9 NE 3 5 1009.1 - 6.6 - - - - - - -
29/10:00pm 23.8 NE 3 5 1008.7 - 6.6 - - - - - - -
29/09:30pm 23.8 NNE 2 5 1008.4 - 6.6 - - - - - - -
29/09:00pm 23.9 NNE 3 5 1008.2 - 6.6 Rain - - - - - -
29/08:30pm 24.1 NE 2 3 1008.2 - 6.2 - - - - - - -
29/08:00pm 24.6 E 2 5 1007.5 - 1.6 - - - - - - -
29/07:30pm 24.7 ESE 8 11 1007.2 - 0.0 - - - - - - -
29/07:00pm 26.5 ESE 5 9 1006.5 - 0.0 - - - - - - -
29/06:30pm 28.1 NNE 3 7 1005.6 - 0.0 - - - - - - -
29/06:00pm 29.8 N 3 5 1005.3 - 0.0 - - - - - - -
29/05:30pm 31.2 NNW 3 6 1004.6 - 0.0 - - - - - - -
29/05:00pm 32.5 NNW 4 8 1004.4 - 0.0 - - - - - - -

Other Formats:

Comma delimited format used in spreadsheet applications
http://www.bom.gov.au/fwo/IDD60701/IDD60701.94119.axf

JavaScript Object Notation format (JSON) in row-major order
http://www.bom.gov.au/fwo/IDD60701/IDD60701.94119.json